Time;durP1;ratioP1;P1;durP2;ratioP2;P2;SDS_P1;SDS_P2;PMS_P1;PMS_P2;Temp;Humidity;BMP_temperature;BMP_pressure;BME280_temperature;BME280_humidity;BME280_pressure;Samples;Min_cycle;Max_cycle;Signal;HPM_P1;HPM_P2
2023/02/09 00:01:14;;;;;;;24.43;17.00;;;;;;;;;;5057187;28;20473;-88
2023/02/09 00:03:40;;;;;;;29.27;20.13;;;;;;;;;;5027273;28;21249;-87
2023/02/09 00:06:07;;;;;;;30.30;17.07;;;;;;;;;;5064226;28;20490;-90
2023/02/09 00:08:33;;;;;;;35.53;19.90;;;;;;;;;;5063346;28;20427;-88
2023/02/09 00:10:59;;;;;;;31.13;20.03;;;;;;;;;;5061310;28;20465;-90
2023/02/09 00:13:25;;;;;;;37.23;17.77;;;;;;;;;;5061463;28;20510;-89
2023/02/09 00:15:52;;;;;;;31.27;17.67;;;;;;;;;;5074852;28;21970;-90
2023/02/09 00:18:18;;;;;;;35.83;21.67;;;;;;;;;;5071848;28;20970;-85
2023/02/09 00:20:44;;;;;;;25.03;17.40;;;;;;;;;;5066419;28;20408;-88
2023/02/09 00:23:10;;;;;;;37.93;19.00;;;;;;;;;;5061095;28;20427;-90
2023/02/09 00:25:39;;;;;;;25.90;17.03;;;;;;;;;;5069156;28;20994;-91
2023/02/09 00:28:06;;;;;;;35.97;23.30;;;;;;;;;;5079916;28;20942;-90
2023/02/09 00:30:32;;;;;;;32.27;18.80;;;;;;;;;;5068837;28;20422;-86
2023/02/09 00:32:58;;;;;;;30.93;19.43;;;;;;;;;;5074354;28;20414;-85
2023/02/09 00:35:24;;;;;;;31.60;19.67;;;;;;;;;;5062401;28;20410;-89
2023/02/09 00:37:50;;;;;;;20.70;15.50;;;;;;;;;;5071590;28;20464;-92
2023/02/09 00:40:16;;;;;;;30.97;18.73;;;;;;;;;;5060043;28;20418;-93
2023/02/09 00:42:42;;;;;;;18.87;15.00;;;;;;;;;;5059484;28;20422;-92
2023/02/09 00:45:08;;;;;;;23.00;13.47;;;;;;;;;;5075963;28;20411;-92
2023/02/09 00:47:34;;;;;;;28.10;17.70;;;;;;;;;;5074869;28;20423;-91
2023/02/09 00:50:00;;;;;;;29.03;21.40;;;;;;;;;;5074676;28;21126;-92
2023/02/09 00:52:26;;;;;;;25.50;17.23;;;;;;;;;;5074657;28;20419;-92
2023/02/09 00:54:52;;;;;;;36.60;18.23;;;;;;;;;;5075538;28;20408;-93
2023/02/09 00:57:18;;;;;;;34.60;18.50;;;;;;;;;;5074156;28;20447;-86
2023/02/09 00:59:49;;;;;;;26.87;15.40;;;;;;;;;;5075394;28;20419;-91
2023/02/09 01:02:15;;;;;;;34.03;21.30;;;;;;;;;;5075221;28;20469;-90
2023/02/09 01:04:41;;;;;;;40.67;22.77;;;;;;;;;;5075474;28;20459;-91
2023/02/09 01:07:07;;;;;;;33.03;18.03;;;;;;;;;;5074448;28;20419;-91
2023/02/09 01:09:33;;;;;;;27.07;16.57;;;;;;;;;;5074498;28;20433;-90
2023/02/09 01:11:59;;;;;;;24.97;14.90;;;;;;;;;;5073778;28;20448;-93
2023/02/09 01:14:25;;;;;;;32.73;20.00;;;;;;;;;;5074276;28;20502;-90
2023/02/09 01:16:51;;;;;;;34.60;19.00;;;;;;;;;;5073648;28;20427;-86
2023/02/09 01:19:17;;;;;;;35.73;20.00;;;;;;;;;;5073113;28;20904;-88
2023/02/09 01:21:43;;;;;;;33.23;17.67;;;;;;;;;;5074475;28;20912;-84
2023/02/09 01:24:12;;;;;;;28.83;19.30;;;;;;;;;;5074617;28;20414;-89
2023/02/09 01:26:38;;;;;;;25.90;17.63;;;;;;;;;;5073204;28;20436;-86
2023/02/09 01:29:04;;;;;;;26.97;17.20;;;;;;;;;;5072749;28;20427;-88
2023/02/09 01:31:31;;;;;;;27.73;17.10;;;;;;;;;;5074414;28;20419;-88
2023/02/09 01:33:57;;;;;;;31.03;18.17;;;;;;;;;;5074409;28;20438;-86
2023/02/09 01:36:24;;;;;;;34.87;18.00;;;;;;;;;;5074206;28;20734;-85
2023/02/09 01:38:50;;;;;;;25.83;17.70;;;;;;;;;;5072145;28;20817;-88
2023/02/09 01:41:16;;;;;;;27.37;19.23;;;;;;;;;;5074336;28;20771;-86
2023/02/09 01:44:00;;;;;;;37.57;21.17;;;;;;;;;;5038732;28;20427;-86
2023/02/09 01:46:27;;;;;;;24.53;16.00;;;;;;;;;;5074800;28;20424;-87
2023/02/09 01:48:56;;;;;;;23.80;15.87;;;;;;;;;;5073170;28;20416;-89
2023/02/09 01:51:22;;;;;;;25.30;17.37;;;;;;;;;;5073122;28;20422;-83
2023/02/09 01:53:48;;;;;;;20.23;12.93;;;;;;;;;;5073219;28;20468;-88
2023/02/09 01:56:17;;;;;;;26.40;17.73;;;;;;;;;;5074283;28;20409;-89
2023/02/09 01:58:45;;;;;;;29.73;17.07;;;;;;;;;;5072709;28;20469;-89
2023/02/09 02:01:14;;;;;;;30.40;15.83;;;;;;;;;;5074358;28;20490;-92
2023/02/09 02:03:43;;;;;;;24.70;16.00;;;;;;;;;;5073420;28;20944;-93
2023/02/09 02:06:11;;;;;;;34.27;19.70;;;;;;;;;;5074515;28;20435;-93
2023/02/09 02:08:43;;;;;;;35.67;16.87;;;;;;;;;;5074414;28;20418;-90
2023/02/09 02:11:09;;;;;;;24.20;17.00;;;;;;;;;;5074513;28;20399;-91
2023/02/09 02:13:35;;;;;;;29.63;18.23;;;;;;;;;;5073904;28;20420;-92
2023/02/09 02:16:01;;;;;;;34.90;18.97;;;;;;;;;;5074304;28;20399;-92
2023/02/09 02:18:46;;;;;;;36.87;18.70;;;;;;;;;;5074109;28;20550;-92
2023/02/09 02:21:24;;;;;;;32.80;17.13;;;;;;;;;;5074211;28;20413;-92
2023/02/09 02:24:12;;;;;;;37.27;19.27;;;;;;;;;;5073204;28;20409;-93
2023/02/09 02:26:57;;;;;;;24.50;16.40;;;;;;;;;;5073771;28;20449;-87
2023/02/09 02:29:41;;;;;;;23.00;16.73;;;;;;;;;;5073916;28;20414;-89
2023/02/09 02:32:23;;;;;;;30.57;16.27;;;;;;;;;;5074187;28;20406;-89
2023/02/09 02:35:10;;;;;;;34.73;16.23;;;;;;;;;;5072753;28;20430;-88
2023/02/09 02:37:50;;;;;;;27.03;17.20;;;;;;;;;;5074029;28;20465;-89
2023/02/09 02:40:35;;;;;;;30.40;19.07;;;;;;;;;;5072560;28;20414;-89
2023/02/09 02:43:07;;;;;;;30.37;15.50;;;;;;;;;;5072648;28;20549;-91
2023/02/09 02:45:38;;;;;;;19.03;14.90;;;;;;;;;;5074403;28;20422;-91
2023/02/09 02:48:24;;;;;;;28.20;17.30;;;;;;;;;;5073836;28;20421;-91
2023/02/09 02:51:09;;;;;;;25.00;16.70;;;;;;;;;;5075379;28;20425;-90
2023/02/09 02:53:36;;;;;;;24.33;13.53;;;;;;;;;;5077839;28;20964;-90
2023/02/09 02:56:06;;;;;;;26.17;15.97;;;;;;;;;;5076721;28;20445;-91
2023/02/09 02:58:34;;;;;;;26.47;16.40;;;;;;;;;;5077550;28;20520;-92
2023/02/09 03:01:01;;;;;;;27.27;14.40;;;;;;;;;;5076840;28;20466;-91
2023/02/09 03:03:32;;;;;;;18.93;14.40;;;;;;;;;;5077594;28;20548;-92
2023/02/09 03:05:59;;;;;;;24.47;13.63;;;;;;;;;;5076399;28;20513;-93
2023/02/09 03:08:27;;;;;;;24.10;17.83;;;;;;;;;;5077427;28;20414;-93
2023/02/09 03:10:56;;;;;;;32.47;17.97;;;;;;;;;;5075581;28;20409;-84
2023/02/09 03:13:37;;;;;;;27.40;14.87;;;;;;;;;;5087607;28;20417;-92
2023/02/09 03:16:22;;;;;;;22.43;13.77;;;;;;;;;;5040483;28;20880;-88
2023/02/09 03:18:50;;;;;;;20.80;14.03;;;;;;;;;;5076337;28;20467;-88
2023/02/09 03:21:19;;;;;;;29.60;13.97;;;;;;;;;;5077478;28;20404;-84
2023/02/09 03:23:50;;;;;;;25.83;15.53;;;;;;;;;;5077411;28;20418;-92
2023/02/09 03:26:20;;;;;;;29.73;17.20;;;;;;;;;;5077249;28;20395;-83
2023/02/09 03:28:48;;;;;;;34.43;17.97;;;;;;;;;;5077099;28;20418;-91
2023/02/09 03:31:14;;;;;;;29.10;15.23;;;;;;;;;;5076199;28;20407;-89
2023/02/09 03:33:41;;;;;;;20.20;14.00;;;;;;;;;;5075939;28;20476;-91
2023/02/09 03:36:08;;;;;;;22.00;13.80;;;;;;;;;;5077012;28;20409;-91
2023/02/09 03:38:34;;;;;;;29.57;15.20;;;;;;;;;;5077002;28;20459;-90
2023/02/09 03:41:00;;;;;;;23.17;15.50;;;;;;;;;;5077038;28;20409;-90
2023/02/09 03:44:25;;;;;;;19.50;13.80;;;;;;;;;;5075622;28;20410;-90
2023/02/09 03:46:12;;;;;;;20.40;12.63;;;;;;;;;;5076709;28;20849;-89
2023/02/09 03:48:38;;;;;;;21.13;13.87;;;;;;;;;;5076070;28;20434;-91
2023/02/09 03:51:05;;;;;;;26.10;16.93;;;;;;;;;;5093195;28;20803;-91
2023/02/09 03:53:32;;;;;;;26.53;16.77;;;;;;;;;;5092718;28;20463;-91
2023/02/09 03:55:58;;;;;;;28.13;17.83;;;;;;;;;;5077256;28;20410;-93
2023/02/09 03:58:25;;;;;;;29.27;15.63;;;;;;;;;;5076680;28;20472;-92
2023/02/09 04:00:51;;;;;;;32.50;16.27;;;;;;;;;;5075304;28;20428;-91
2023/02/09 04:03:17;;;;;;;23.40;15.90;;;;;;;;;;5076001;28;20465;-90
2023/02/09 04:05:46;;;;;;;25.87;14.67;;;;;;;;;;5075565;28;20909;-92
2023/02/09 04:08:11;;;;;;;21.90;15.57;;;;;;;;;;5076676;28;20411;-83
2023/02/09 04:10:37;;;;;;;23.13;12.80;;;;;;;;;;5075227;28;20752;-93
2023/02/09 04:13:03;;;;;;;26.03;15.40;;;;;;;;;;5075147;28;20427;-92
2023/02/09 04:15:29;;;;;;;18.00;14.27;;;;;;;;;;5075564;28;20413;-92
2023/02/09 04:17:55;;;;;;;31.00;16.23;;;;;;;;;;5074896;28;20498;-89
2023/02/09 04:20:21;;;;;;;34.20;16.60;;;;;;;;;;5074998;28;20933;-87
2023/02/09 04:22:48;;;;;;;21.67;14.93;;;;;;;;;;5075011;28;20464;-90
2023/02/09 04:25:14;;;;;;;30.60;18.40;;;;;;;;;;5076319;28;20406;-89
2023/02/09 04:27:43;;;;;;;25.90;16.50;;;;;;;;;;5074557;28;21111;-91
2023/02/09 04:30:09;;;;;;;17.37;13.87;;;;;;;;;;5076062;28;20498;-91
2023/02/09 04:32:35;;;;;;;28.90;16.70;;;;;;;;;;5075063;28;20419;-90
2023/02/09 04:35:01;;;;;;;26.33;14.70;;;;;;;;;;5074880;28;20404;-89
2023/02/09 04:37:26;;;;;;;22.87;12.97;;;;;;;;;;5074820;28;20465;-88
2023/02/09 04:39:54;;;;;;;26.97;15.53;;;;;;;;;;5077896;28;20427;-86
2023/02/09 04:42:19;;;;;;;24.00;15.43;;;;;;;;;;5080098;28;20948;-88
2023/02/09 04:44:45;;;;;;;22.60;15.73;;;;;;;;;;5076042;28;20415;-88
2023/02/09 04:47:11;;;;;;;27.40;16.70;;;;;;;;;;5074676;28;20558;-90
2023/02/09 04:49:37;;;;;;;24.30;14.70;;;;;;;;;;5015853;28;20484;-91
2023/02/09 04:52:03;;;;;;;32.30;17.40;;;;;;;;;;5055721;28;20438;-88
2023/02/09 04:54:29;;;;;;;24.90;13.00;;;;;;;;;;5054381;28;20422;-85
2023/02/09 04:59:43;;;;;;;20.40;12.37;;;;;;;;;;5055833;28;20914;-89
2023/02/09 05:02:09;;;;;;;23.47;14.57;;;;;;;;;;5055468;28;20463;-87
2023/02/09 05:04:35;;;;;;;21.10;13.73;;;;;;;;;;5054044;28;20418;-89
2023/02/09 05:07:01;;;;;;;19.50;11.23;;;;;;;;;;5055230;28;20415;-89
2023/02/09 05:09:27;;;;;;;19.00;12.63;;;;;;;;;;5054307;28;20417;-90
2023/02/09 05:11:53;;;;;;;21.07;11.67;;;;;;;;;;5054062;28;20565;-89
2023/02/09 05:14:19;;;;;;;22.80;15.00;;;;;;;;;;5053999;28;20421;-89
2023/02/09 05:16:45;;;;;;;19.20;12.60;;;;;;;;;;5053835;28;20449;-89
2023/02/09 05:19:12;;;;;;;26.20;15.97;;;;;;;;;;5053831;28;20482;-86
2023/02/09 05:21:38;;;;;;;19.87;13.97;;;;;;;;;;5053577;28;20424;-90
2023/02/09 05:24:04;;;;;;;24.90;14.77;;;;;;;;;;5054850;28;20474;-89
2023/02/09 05:26:30;;;;;;;28.10;15.20;;;;;;;;;;5053527;28;20502;-88
2023/02/09 05:28:57;;;;;;;19.67;12.73;;;;;;;;;;5054875;28;20412;-91
2023/02/09 05:31:23;;;;;;;21.87;14.43;;;;;;;;;;5054702;28;20458;-91
2023/02/09 05:33:49;;;;;;;17.97;12.43;;;;;;;;;;5053772;28;20421;-93
2023/02/09 05:36:15;;;;;;;13.33;8.60;;;;;;;;;;5054712;28;20437;-85
2023/02/09 05:38:41;;;;;;;22.20;13.27;;;;;;;;;;5054553;28;20471;-91
2023/02/09 05:41:08;;;;;;;22.80;15.37;;;;;;;;;;5053296;28;20415;-90
2023/02/09 05:43:34;;;;;;;25.50;15.67;;;;;;;;;;5054523;28;20490;-91
2023/02/09 05:46:09;;;;;;;19.50;11.03;;;;;;;;;;5053656;28;20491;-91
2023/02/09 05:48:35;;;;;;;22.67;12.43;;;;;;;;;;5054342;28;20813;-92
2023/02/09 05:51:04;;;;;;;24.43;14.10;;;;;;;;;;5054574;28;20458;-87
2023/02/09 05:53:30;;;;;;;20.33;11.63;;;;;;;;;;5024699;28;20438;-87
2023/02/09 05:55:56;;;;;;;21.93;11.77;;;;;;;;;;5073169;28;20438;-86
2023/02/09 05:58:22;;;;;;;20.00;12.50;;;;;;;;;;5072808;28;20471;-84
2023/02/09 06:00:47;;;;;;;26.73;15.20;;;;;;;;;;5073162;28;20421;-87
2023/02/09 06:03:13;;;;;;;24.00;16.60;;;;;;;;;;5073101;28;20466;-85
2023/02/09 06:05:39;;;;;;;29.57;13.80;;;;;;;;;;5074300;28;20906;-85
2023/02/09 06:08:05;;;;;;;20.03;14.90;;;;;;;;;;5074633;28;20426;-88
2023/02/09 06:10:31;;;;;;;19.50;13.97;;;;;;;;;;5080538;28;20916;-90
2023/02/09 06:12:57;;;;;;;16.97;10.50;;;;;;;;;;5074235;28;20410;-90
2023/02/09 06:15:23;;;;;;;21.13;12.43;;;;;;;;;;5073110;28;20418;-88
2023/02/09 06:17:49;;;;;;;21.57;14.93;;;;;;;;;;5056162;28;20992;-87
2023/02/09 06:20:16;;;;;;;22.27;13.70;;;;;;;;;;5072895;28;20407;-88
2023/02/09 06:22:42;;;;;;;20.23;12.67;;;;;;;;;;5073189;28;20911;-90
2023/02/09 06:25:11;;;;;;;22.47;13.47;;;;;;;;;;5072453;28;20422;-89
2023/02/09 06:27:37;;;;;;;22.20;14.30;;;;;;;;;;5073506;28;20412;-88
2023/02/09 06:30:03;;;;;;;29.60;13.23;;;;;;;;;;5073294;28;20502;-89
2023/02/09 06:32:29;;;;;;;25.57;11.37;;;;;;;;;;5074822;28;20434;-95
2023/02/09 06:34:55;;;;;;;21.27;12.57;;;;;;;;;;5072985;28;20455;-94
2023/02/09 06:37:21;;;;;;;19.43;11.10;;;;;;;;;;5078369;28;20951;-92
2023/02/09 06:39:47;;;;;;;14.70;9.57;;;;;;;;;;5074471;28;20433;-90
2023/02/09 06:42:13;;;;;;;23.77;13.57;;;;;;;;;;5074049;28;20411;-93
2023/02/09 06:44:40;;;;;;;21.83;12.90;;;;;;;;;;5075075;28;20510;-90
2023/02/09 06:47:06;;;;;;;16.30;13.20;;;;;;;;;;5080865;28;20914;-92
2023/02/09 06:49:32;;;;;;;35.93;19.13;;;;;;;;;;5082183;28;20422;-91
2023/02/09 06:51:59;;;;;;;37.30;27.00;;;;;;;;;;5079558;28;20745;-86
2023/02/09 06:54:27;;;;;;;20.43;16.40;;;;;;;;;;5077392;28;20441;-92
2023/02/09 06:56:54;;;;;;;28.50;20.50;;;;;;;;;;5078860;28;20430;-92
2023/02/09 06:59:27;;;;;;;33.60;22.67;;;;;;;;;;5084343;28;20464;-95
2023/02/09 07:01:56;;;;;;;22.70;13.63;;;;;;;;;;5072064;28;20470;-91
2023/02/09 07:04:26;;;;;;;25.73;17.80;;;;;;;;;;5031534;28;20433;-89
2023/02/09 07:06:52;;;;;;;26.73;16.60;;;;;;;;;;5073054;28;20791;-90
2023/02/09 07:09:19;;;;;;;28.93;16.87;;;;;;;;;;5073013;28;20514;-91
2023/02/09 07:11:48;;;;;;;27.20;17.30;;;;;;;;;;5069856;28;20457;-87
2023/02/09 07:14:14;;;;;;;25.53;15.43;;;;;;;;;;5072411;28;20489;-87
2023/02/09 07:16:40;;;;;;;22.90;14.20;;;;;;;;;;5070208;28;20953;-90
2023/02/09 07:19:06;;;;;;;23.83;14.40;;;;;;;;;;5073652;28;20479;-94
2023/02/09 07:21:32;;;;;;;26.27;13.67;;;;;;;;;;5073306;28;20938;-86
2023/02/09 07:23:57;;;;;;;20.97;11.93;;;;;;;;;;5072432;28;20409;-88
2023/02/09 07:26:23;;;;;;;19.50;12.37;;;;;;;;;;5071955;28;20406;-84
2023/02/09 07:28:49;;;;;;;24.10;13.00;;;;;;;;;;5072398;28;20415;-84
2023/02/09 07:31:16;;;;;;;18.53;12.13;;;;;;;;;;5073046;28;20413;-85
2023/02/09 07:33:42;;;;;;;18.97;12.87;;;;;;;;;;5072427;28;20454;-84
2023/02/09 07:36:09;;;;;;;16.93;12.07;;;;;;;;;;5071919;28;20486;-92
2023/02/09 07:38:35;;;;;;;22.03;13.67;;;;;;;;;;5094082;28;20466;-87
2023/02/09 07:41:03;;;;;;;23.47;12.73;;;;;;;;;;5076249;28;20441;-93
2023/02/09 07:43:28;;;;;;;23.23;11.50;;;;;;;;;;5074119;28;20422;-85
2023/02/09 07:46:05;;;;;;;23.00;11.40;;;;;;;;;;5075649;28;20411;-85
2023/02/09 07:48:32;;;;;;;24.23;14.63;;;;;;;;;;5072942;28;20431;-86
2023/02/09 07:50:58;;;;;;;23.33;16.47;;;;;;;;;;5074229;28;20414;-84
2023/02/09 07:53:24;;;;;;;22.53;15.00;;;;;;;;;;5074645;28;20441;-86
2023/02/09 07:55:50;;;;;;;22.07;14.13;;;;;;;;;;5074451;28;20416;-92
2023/02/09 07:58:18;;;;;;;32.67;17.13;;;;;;;;;;5074897;28;20478;-85
2023/02/09 08:00:44;;;;;;;29.77;17.47;;;;;;;;;;5075464;28;20423;-86
2023/02/09 08:03:10;;;;;;;28.30;17.30;;;;;;;;;;5064617;28;20479;-87
2023/02/09 08:05:57;;;;;;;26.53;13.13;;;;;;;;;;5045008;28;20819;-85
2023/02/09 08:08:23;;;;;;;21.27;9.57;;;;;;;;;;5076101;28;20409;-90
2023/02/09 08:10:49;;;;;;;17.73;11.30;;;;;;;;;;5074673;28;20519;-86
2023/02/09 08:13:15;;;;;;;17.73;9.60;;;;;;;;;;5074222;28;20761;-91
2023/02/09 08:15:43;;;;;;;19.00;9.70;;;;;;;;;;5074691;28;20432;-91
2023/02/09 08:18:13;;;;;;;22.90;10.50;;;;;;;;;;5073291;28;20478;-86
2023/02/09 08:20:39;;;;;;;19.20;10.00;;;;;;;;;;5075472;28;20419;-92
2023/02/09 08:23:11;;;;;;;21.87;10.10;;;;;;;;;;5077243;28;20403;-94
2023/02/09 08:25:37;;;;;;;11.90;9.17;;;;;;;;;;5083493;28;20426;-93
2023/02/09 08:28:04;;;;;;;14.67;9.67;;;;;;;;;;5080521;28;20512;-92
2023/02/09 08:30:30;;;;;;;14.53;7.40;;;;;;;;;;5086503;28;20444;-94
2023/02/09 08:32:56;;;;;;;14.97;7.93;;;;;;;;;;5074844;28;20974;-90
2023/02/09 08:35:22;;;;;;;15.40;7.30;;;;;;;;;;5074662;28;20421;-88
2023/02/09 08:37:47;;;;;;;17.53;8.47;;;;;;;;;;5074132;28;20896;-87
2023/02/09 08:40:14;;;;;;;13.93;6.87;;;;;;;;;;5074027;28;20460;-88
2023/02/09 08:42:40;;;;;;;15.33;7.20;;;;;;;;;;5073378;28;20444;-90
2023/02/09 08:45:06;;;;;;;11.83;6.20;;;;;;;;;;5074312;28;20419;-89
2023/02/09 08:47:32;;;;;;;14.07;7.13;;;;;;;;;;5075379;28;20429;-89
2023/02/09 08:49:58;;;;;;;12.83;7.00;;;;;;;;;;5074585;28;20514;-87
2023/02/09 08:52:24;;;;;;;13.33;6.27;;;;;;;;;;5075250;28;20418;-87
2023/02/09 08:54:50;;;;;;;11.20;7.90;;;;;;;;;;5075182;28;20435;-93
2023/02/09 08:57:16;;;;;;;11.70;6.53;;;;;;;;;;5074307;28;20414;-88
2023/02/09 08:59:42;;;;;;;8.87;5.97;;;;;;;;;;5074987;28;20430;-88
2023/02/09 09:02:09;;;;;;;7.87;4.50;;;;;;;;;;5075050;28;20454;-88
2023/02/09 09:04:35;;;;;;;14.93;7.43;;;;;;;;;;5075196;28;20836;-84
2023/02/09 09:07:01;;;;;;;14.30;7.20;;;;;;;;;;5075337;28;20505;-88
2023/02/09 09:09:28;;;;;;;8.27;5.83;;;;;;;;;;5074377;28;20445;-86
2023/02/09 09:11:54;;;;;;;12.20;6.30;;;;;;;;;;5073941;28;20416;-86
2023/02/09 09:14:20;;;;;;;13.10;6.70;;;;;;;;;;5073078;28;20418;-85
2023/02/09 09:16:46;;;;;;;9.83;6.40;;;;;;;;;;5072881;28;20430;-87
2023/02/09 09:19:12;;;;;;;14.63;8.07;;;;;;;;;;5074251;28;20474;-86
2023/02/09 09:21:43;;;;;;;10.77;6.00;;;3.80;50.70;;;;;;5074105;28;20501;-86
2023/02/09 09:24:09;;;;;;;11.90;6.10;;;4.40;2.00;;;;;;5073122;28;20931;-87
2023/02/09 09:26:37;;;;;;;11.63;6.20;;;4.60;1.00;;;;;;5073742;28;20453;-88
2023/02/09 09:29:03;;;;;;;11.83;5.57;;;;;;;;;;5073486;28;20182;-86
2023/02/09 09:31:32;;;;;;;9.00;5.00;;;;;;;;;;5036560;28;20519;-89
2023/02/09 09:33:57;;;;;;;9.43;5.80;;;;;;;;;;5074214;28;20415;-86
2023/02/09 09:36:23;;;;;;;10.20;5.90;;;;;;;;;;5079265;28;20421;-88
2023/02/09 09:38:49;;;;;;;9.73;5.90;;;;;;;;;;5073286;28;20216;-86
2023/02/09 09:41:33;;;;;;;13.20;7.27;;;;;;;;;;5073316;28;20480;-87
2023/02/09 09:44:00;;;;;;;9.30;5.70;;;;;;;;;;5074560;28;20438;-89
2023/02/09 09:46:33;;;;;;;9.50;5.00;;;;;;;;;;5073978;28;20410;-87
2023/02/09 09:48:59;;;;;;;12.47;6.07;;;;;;;;;;5073189;28;20466;-88
2023/02/09 09:51:42;;;;;;;12.37;6.70;;;;;;;;;;5072899;28;20579;-86
2023/02/09 09:54:26;;;;;;;10.23;5.53;;;;;;;;;;5075333;28;20414;-89
2023/02/09 09:56:53;;;;;;;8.60;5.70;;;;;;;;;;5077068;28;20936;-90
2023/02/09 09:59:21;;;;;;;8.90;5.83;;;;;;;;;;5076626;28;20467;-88
2023/02/09 10:01:49;;;;;;;8.53;5.07;;;;;;;;;;5074089;28;20454;-88
2023/02/09 10:04:15;;;;;;;12.20;5.43;;;;;;;;;;5073793;28;20440;-87
2023/02/09 10:06:42;;;;;;;12.23;6.93;;;;;;;;;;5073316;28;20940;-87
2023/02/09 10:09:22;;;;;;;11.10;5.50;;;;;;;;;;5072923;28;20426;-87
2023/02/09 10:11:52;;;;;;;8.63;5.87;;;;;;;;;;5072944;28;20399;-87
2023/02/09 10:14:18;;;;;;;11.13;6.10;;;;;;;;;;5073188;28;20414;-89
2023/02/09 10:16:44;;;;;;;9.03;6.10;;;;;;;;;;5072341;28;20466;-90
2023/02/09 10:19:18;;;;;;;10.90;5.87;;;;;;;;;;5073411;28;20256;-88
2023/02/09 10:21:45;;;;;;;10.70;5.80;;;;;;;;;;5073245;28;20449;-87
2023/02/09 10:24:28;;;;;;;9.07;6.30;;;;;;;;;;5071773;28;20418;-90
2023/02/09 10:27:09;;;;;;;10.63;4.97;;;;;;;;;;5070360;28;20423;-84
2023/02/09 10:29:36;;;;;;;10.60;6.67;;;;;;;;;;5072762;28;20480;-84
2023/02/09 10:32:12;;;;;;;10.67;6.40;;;;;;;;;;5029928;28;20449;-83
2023/02/09 10:34:39;;;;;;;15.60;6.37;;;;;;;;;;5071781;28;20937;-86
2023/02/09 10:37:24;;;;;;;11.13;6.13;;;;;;;;;;5071337;28;20427;-83
2023/02/09 10:40:13;;;;;;;9.10;4.67;;;;;;;;;;5071616;28;20964;-83
2023/02/09 10:42:42;;;;;;;13.50;6.37;;;;;;;;;;5071462;28;20760;-84
2023/02/09 10:45:11;;;;;;;11.27;5.30;;;;;;;;;;5071402;28;20582;-83
2023/02/09 10:47:37;;;;;;;10.77;5.40;;;;;;;;;;5071637;28;20785;-86
2023/02/09 10:50:12;;;;;;;10.30;5.40;;;;;;;;;;5071220;28;20514;-83
2023/02/09 10:52:42;;;;;;;9.50;5.10;;;;;;;;;;5072601;28;20449;-83
2023/02/09 10:55:16;;;;;;;10.90;5.10;;;;;;;;;;5071246;28;20923;-84
2023/02/09 10:57:42;;;;;;;10.30;5.60;;;;;;;;;;5070948;28;20459;-84
2023/02/09 11:00:17;;;;;;;8.43;5.03;;;;;;;;;;5062122;28;20432;-84
2023/02/09 11:02:51;;;;;;;7.60;5.37;;;;;;;;;;5078174;28;20985;-83
2023/02/09 11:05:20;;;;;;;10.47;5.70;;;;;;;;;;5069291;28;20465;-83
2023/02/09 11:07:50;;;;;;;9.57;5.60;;;;;;;;;;5068986;28;20424;-85
2023/02/09 11:10:16;;;;;;;9.17;5.53;;;;;;;;;;5071983;28;20452;-85
2023/02/09 11:12:42;;;;;;;11.00;5.50;;;;;;;;;;5058252;28;20506;-84
2023/02/09 11:15:22;;;;;;;11.13;6.70;;;;;;;;;;5073875;28;20460;-88
2023/02/09 11:18:01;;;;;;;8.37;5.93;;;;;;;;;;5076307;28;20501;-85
2023/02/09 11:20:29;;;;;;;8.50;6.00;;;;;;;;;;5076359;28;20934;-85
2023/02/09 11:23:05;;;;;;;11.60;5.63;;;;;;;;;;5076025;28;20827;-87
2023/02/09 11:25:49;;;;;;;9.47;5.20;;;;;;;;;;5075780;28;20408;-85
2023/02/09 11:28:27;;;;;;;9.93;6.07;;;;;;;;;;5076149;28;20404;-87
2023/02/09 11:31:09;;;;;;;11.03;5.07;;;;;;;;;;5035075;28;20415;-83
2023/02/09 11:33:55;;;;;;;11.10;5.90;;;;;;;;;;5074711;28;20925;-85
2023/02/09 11:36:30;;;;;;;10.97;4.90;;;;;;;;;;5075702;28;20902;-87
2023/02/09 11:39:05;;;;;;;8.00;5.80;;;;;;;;;;5075691;28;20581;-83
2023/02/09 11:44:30;;;;;;;10.70;5.70;;;;;;;;;;5076135;28;20398;-84
2023/02/09 11:47:00;;;;;;;11.10;5.87;;;;;;;;;;5074404;28;20428;-84
2023/02/09 11:49:29;;;;;;;9.33;5.63;;;;;;;;;;5074458;28;20419;-83
2023/02/09 11:51:58;;;;;;;8.30;6.40;;;;;;;;;;5075615;28;20475;-83
2023/02/09 11:54:29;;;;;;;8.70;5.57;;;;;;;;;;5075546;28;20412;-83
2023/02/09 11:56:59;;;;;;;10.23;6.13;;;;;;;;;;5073903;28;20424;-83
2023/02/09 11:59:30;;;;;;;10.50;6.50;;;;;;;;;;5074156;28;20486;-83
2023/02/09 12:02:02;;;;;;;8.43;6.00;;;;;;;;;;5073966;28;20493;-84
2023/02/09 12:04:44;;;;;;;7.07;4.87;;;;;;;;;;5075329;28;20417;-83
2023/02/09 12:07:20;;;;;;;13.77;6.67;;;;;;;;;;5075313;28;20943;-82
2023/02/09 12:10:03;;;;;;;7.67;5.93;;;;;;;;;;5074084;28;20420;-84
2023/02/09 12:12:34;;;;;;;12.07;6.63;;;;;;;;;;5055354;28;20417;-82
2023/02/09 12:15:29;;;;;;;8.73;5.37;;;;;;;;;;5055135;28;20918;-83
2023/02/09 12:18:08;;;;;;;9.53;5.37;;;;;;;;;;5046307;28;20472;-83
2023/02/09 12:20:39;;;;;;;12.60;5.83;;;;;;;;;;5053989;28;20507;-83
2023/02/09 12:23:14;;;;;;;9.23;6.37;;;;;;;;;;5053035;28;20429;-82
2023/02/09 12:26:00;;;;;;;11.23;5.90;;;;;;;;;;5056690;28;20432;-83
2023/02/09 12:28:29;;;;;;;8.87;6.27;;;;;;;;;;5053768;28;20429;-86
2023/02/09 12:30:58;;;;;;;10.30;5.77;;;;;;;;;;5022911;28;20444;-82
2023/02/09 12:33:26;;;;;;;16.27;6.93;;;;;;;;;;5073918;28;20420;-82
2023/02/09 12:36:00;;;;;;;9.30;5.70;;;;;;;;;;5073883;28;20493;-83
2023/02/09 12:38:45;;;;;;;10.13;5.00;;;;;;;;;;5073512;28;20481;-83
2023/02/09 12:41:11;;;;;;;7.47;4.70;;;;;;;;;;5073133;28;20412;-83
2023/02/09 12:43:38;;;;;;;10.60;5.20;;;;;;;;;;5073437;28;20430;-82
2023/02/09 12:46:11;;;;;;;11.30;6.03;;;;;;;;;;5070133;28;20421;-82
2023/02/09 12:48:55;;;;;;;9.63;4.40;;;;;;;;;;5062702;28;20408;-82
2023/02/09 12:51:36;;;;;;;12.00;5.90;;;;;;;;;;5063296;28;20411;-83
2023/02/09 12:54:22;;;;;;;10.80;6.30;;;;;;;;;;5086071;28;20419;-83
2023/02/09 12:56:48;;;;;;;12.57;6.33;;;;;;;;;;5063165;28;20445;-83
2023/02/09 12:59:15;;;;;;;10.43;5.90;;;;;;;;;;5062289;28;20470;-84
2023/02/09 13:02:00;;;;;;;9.07;5.07;;;;;;;;;;5061513;28;20455;-82
2023/02/09 13:04:27;;;;;;;10.00;4.97;;;;;;;;;;5071745;28;20790;-85
2023/02/09 13:06:56;;;;;;;15.53;6.23;;;;;;;;;;5074154;28;20408;-84
2023/02/09 13:09:25;;;;;;;11.00;5.50;;;;;;;;;;5074362;28;20418;-85
2023/02/09 13:12:03;;;;;;;10.07;5.77;;;;;;;;;;5072524;28;20460;-84
2023/02/09 13:14:30;;;;;;;9.17;6.43;;;;;;;;;;5072827;28;20423;-84
2023/02/09 13:16:55;;;;;;;10.10;5.77;;;;;;;;;;5069182;28;20449;-82
2023/02/09 13:19:31;;;;;;;12.20;6.70;;;;;;;;;;5059077;28;20484;-82
2023/02/09 13:22:15;;;;;;;13.13;6.90;;;;;;;;;;5060286;28;20471;-82
2023/02/09 13:24:48;;;;;;;11.93;5.70;;;;;;;;;;5059683;28;20430;-82
2023/02/09 13:27:21;;;;;;;9.40;5.73;;;;;;;;;;5059791;28;20431;-82
2023/02/09 13:29:52;;;;;;;9.77;5.63;;;;;;;;;;5058821;28;20807;-83
2023/02/09 13:32:30;;;;;;;12.90;6.27;;;;;;;;;;5060192;28;20430;-82
2023/02/09 13:35:00;;;;;;;10.30;6.53;;;;;;;;;;5057925;28;20476;-81
2023/02/09 13:37:32;;;;;;;9.47;6.40;;;;;;;;;;5057913;28;20433;-82
2023/02/09 13:39:59;;;;;;;13.20;6.20;;;;;;;;;;5058989;28;20437;-84
2023/02/09 13:42:26;;;;;;;9.07;5.93;;;;;;;;;;5061064;28;20433;-81
2023/02/09 13:44:54;;;;;;;10.40;6.67;;;;;;;;;;5060207;28;20439;-82
2023/02/09 13:47:20;;;;;;;9.83;7.20;;;;;;;;;;5058473;28;20443;-82
2023/02/09 13:49:56;;;;;;;13.73;7.70;;;;;;;;;;5060288;28;20435;-84
2023/02/09 13:52:22;;;;;;;8.53;5.93;;;;;;;;;;5067350;28;20815;-82
2023/02/09 13:54:48;;;;;;;9.53;5.80;;;;;;;;;;5058268;28;20432;-84
2023/02/09 13:57:28;;;;;;;12.67;7.10;;;;;;;;;;5058628;28;20438;-86
2023/02/09 13:59:54;;;;;;;10.13;6.50;;;;;;;;;;5060276;28;20534;-82
2023/02/09 14:02:23;;;;;;;11.30;6.67;;;;;;;;;;5058272;28;20473;-82
2023/02/09 14:04:54;;;;;;;9.70;6.97;;;;;;;;;;5074989;28;21020;-82
2023/02/09 14:07:23;;;;;;;10.90;6.20;;;;;;;;;;5058156;28;20799;-83
2023/02/09 14:09:51;;;;;;;12.00;7.33;;;;;;;;;;5058566;28;20813;-84
2023/02/09 14:12:55;;;;;;;9.40;5.53;;;;;;;;;;5058265;28;20464;-82
2023/02/09 14:18:29;;;;;;;10.90;7.27;;;;;;;;;;5060572;28;20471;-88
2023/02/09 14:20:59;;;;;;;12.77;6.90;;;;;;;;;;5060120;28;20449;-85
2023/02/09 14:23:26;;;;;;;11.17;7.37;;;;;;;;;;5058551;28;20441;-85
2023/02/09 14:26:02;;;;;;;11.13;7.47;;;;;;;;;;5058168;28;20446;-83
2023/02/09 14:28:28;;;;;;;9.17;6.00;;;;;;;;;;5058127;28;20445;-82
2023/02/09 14:30:54;;;;;;;9.23;6.23;;;;;;;;;;5059112;28;20964;-86
2023/02/09 14:33:23;;;;;;;9.50;5.10;;;;;;;;;;5058710;28;20932;-82
2023/02/09 14:35:54;;;;;;;12.13;7.33;;;;;;;;;;5058205;28;20440;-82
2023/02/09 14:38:41;;;;;;;11.17;6.27;;;;;;;;;;5058368;28;20517;-81
2023/02/09 14:41:17;;;;;;;8.70;5.50;;;;;;;;;;5057001;28;20455;-83
2023/02/09 14:43:43;;;;;;;13.77;7.37;;;;;;;;;;5066729;28;20445;-82
2023/02/09 14:46:09;;;;;;;8.10;5.57;;;;;;;;;;5059563;28;20421;-83